createdAt,value
2019-02-23T00:00:55.188Z,82.76
2019-02-23T00:05:57.084Z,82.69
2019-02-23T00:10:58.635Z,82.83
2019-02-23T00:16:00.228Z,82.95
2019-02-23T00:21:01.765Z,83.29
2019-02-23T00:26:03.286Z,83.63
2019-02-23T00:31:05.205Z,84.44
2019-02-23T00:36:06.765Z,84.03
2019-02-23T00:41:08.744Z,83.98
2019-02-23T00:46:10.621Z,83.99
2019-02-23T00:51:12.237Z,83.84
2019-02-23T00:56:13.770Z,83.83
2019-02-23T01:01:15.337Z,83.86
2019-02-23T01:06:16.847Z,83.69
2019-02-23T01:11:18.412Z,83.74
2019-02-23T01:16:19.950Z,83.76
2019-02-23T01:21:21.468Z,83.97
2019-02-23T01:26:23.027Z,83.89
2019-02-23T01:31:24.566Z,83.69
2019-02-23T01:36:26.137Z,83.66
2019-02-23T01:41:28.101Z,83.78
2019-02-23T01:46:29.670Z,83.73
2019-02-23T01:51:31.266Z,83.93
2019-02-23T01:56:32.798Z,84.32
2019-02-23T02:01:34.357Z,84.28
2019-02-23T02:06:35.911Z,84.51
2019-02-23T02:11:37.808Z,84.34
2019-02-23T02:16:39.396Z,84.53
2019-02-23T02:21:41.260Z,84.46
2019-02-23T02:26:42.839Z,84.69
2019-02-23T02:31:44.709Z,84.70
2019-02-23T02:36:46.268Z,85.07
2019-02-23T02:41:47.900Z,84.99
2019-02-23T02:46:49.846Z,84.90
2019-02-23T02:51:51.355Z,85.17
2019-02-23T02:56:52.975Z,85.41
2019-02-23T03:01:54.859Z,84.87
2019-02-23T03:06:56.409Z,84.62
2019-02-23T03:11:58.336Z,83.90
2019-02-23T03:16:59.899Z,83.73
2019-02-23T03:22:01.490Z,83.63
2019-02-23T03:27:03.512Z,83.42
2019-02-23T03:32:05.029Z,83.68
2019-02-23T03:37:06.640Z,83.55
2019-02-23T03:42:08.245Z,83.35
2019-02-23T03:47:09.906Z,83.54
2019-02-23T03:52:11.561Z,83.60
2019-02-23T03:57:13.186Z,83.46
2019-02-23T04:02:15.548Z,83.52
2019-02-23T04:07:17.426Z,83.92
2019-02-23T04:12:18.970Z,83.85
2019-02-23T04:17:20.523Z,84.30
2019-02-23T04:22:22.412Z,84.62
2019-02-23T04:27:24.442Z,84.69
2019-02-23T04:32:25.968Z,85.00
2019-02-23T04:37:27.525Z,84.96
2019-02-23T04:42:29.184Z,85.04
2019-02-23T04:47:31.140Z,85.00
2019-02-23T04:52:32.706Z,84.83
2019-02-23T04:57:34.334Z,84.72
2019-02-23T05:02:35.866Z,84.62
2019-02-23T05:07:37.420Z,84.68
2019-02-23T05:12:38.958Z,84.98
2019-02-23T05:17:40.911Z,84.91
2019-02-23T05:22:42.456Z,84.99
2019-02-23T05:27:44.106Z,85.07
2019-02-23T05:32:45.640Z,85.23
2019-02-23T05:37:47.223Z,85.23
2019-02-23T05:43:00.100Z,85.25
2019-02-23T05:47:52.351Z,85.33
2019-02-23T05:52:53.966Z,85.38
2019-02-23T05:57:55.611Z,85.36
2019-02-23T06:02:57.237Z,85.43
2019-02-23T06:07:59.461Z,85.40
2019-02-23T06:13:01.021Z,85.51
2019-02-23T06:18:02.673Z,85.56
2019-02-23T06:23:04.467Z,85.65
2019-02-23T06:28:05.984Z,85.40
2019-02-23T06:33:07.620Z,85.48
2019-02-23T06:38:09.297Z,85.51
2019-02-23T06:43:10.825Z,85.60
2019-02-23T06:48:12.425Z,85.57
2019-02-23T06:53:14.435Z,85.51
2019-02-23T06:58:16.533Z,85.58
2019-02-23T07:03:18.200Z,86.91
2019-02-23T07:08:19.816Z,87.08
2019-02-23T07:13:21.379Z,86.82
2019-02-23T07:18:23.076Z,86.30
2019-02-23T07:23:24.654Z,85.28
2019-02-23T07:28:26.228Z,85.00
2019-02-23T07:33:32.989Z,84.91
2019-02-23T07:38:31.319Z,84.52
2019-02-23T07:43:32.993Z,85.01
2019-02-23T07:48:34.531Z,84.76
2019-02-23T07:53:36.197Z,85.04
2019-02-23T07:58:38.185Z,84.27
2019-02-23T08:03:39.760Z,84.29
2019-02-23T08:08:41.461Z,84.17
2019-02-23T08:13:43.197Z,83.27
2019-02-23T08:18:44.755Z,82.86
2019-02-23T08:23:46.329Z,82.78
2019-02-23T08:28:47.888Z,82.70
2019-02-23T08:33:49.447Z,82.67
2019-02-23T08:38:51.038Z,82.58
2019-02-23T08:43:52.674Z,82.57
2019-02-23T08:48:54.344Z,82.28
2019-02-23T08:53:55.901Z,82.34
2019-02-23T08:58:57.551Z,82.65
2019-02-23T09:03:59.085Z,83.25
2019-02-23T09:09:00.653Z,83.17
2019-02-23T09:14:02.136Z,82.50
2019-02-23T09:19:03.862Z,81.57
2019-02-23T09:24:05.501Z,80.83
2019-02-23T09:29:07.177Z,80.16
2019-02-23T09:34:08.889Z,79.32
2019-02-23T09:39:10.456Z,79.26
2019-02-23T09:44:12.195Z,77.68
2019-02-23T09:49:14.190Z,77.27
2019-02-23T09:54:15.734Z,77.33
2019-02-23T09:59:17.300Z,76.55
2019-02-23T10:04:19.260Z,77.12
2019-02-23T10:09:21.007Z,75.72
2019-02-23T10:14:22.645Z,74.08
2019-02-23T10:19:24.242Z,74.33
2019-02-23T10:24:25.808Z,73.51
2019-02-23T10:29:27.407Z,72.93
2019-02-23T10:34:29.012Z,72.13
2019-02-23T10:39:30.952Z,71.84
2019-02-23T10:44:32.482Z,71.88
2019-02-23T10:49:35.108Z,70.89
2019-02-23T10:54:36.674Z,70.99
2019-02-23T10:59:38.268Z,70.48
2019-02-23T11:04:39.819Z,69.99
2019-02-23T11:09:41.411Z,70.44
2019-02-23T11:14:42.897Z,70.66
2019-02-23T11:19:44.758Z,70.91
2019-02-23T11:24:46.570Z,70.25
2019-02-23T11:29:48.204Z,70.59
2019-02-23T11:34:50.351Z,70.78
2019-02-23T11:39:52.321Z,71.16
2019-02-23T11:44:53.892Z,71.63
2019-02-23T11:49:55.581Z,71.57
2019-02-23T11:54:57.444Z,71.78
2019-02-23T11:59:59.126Z,72.15
2019-02-23T12:05:00.704Z,72.60
2019-02-23T12:10:02.397Z,73.00
2019-02-23T12:15:04.252Z,74.01
2019-02-23T12:20:05.990Z,73.79
2019-02-23T12:25:07.620Z,74.53
2019-02-23T12:30:09.242Z,74.43
2019-02-23T12:35:11.281Z,74.89
2019-02-23T12:40:12.971Z,74.28
2019-02-23T12:45:14.899Z,75.24
2019-02-23T12:50:16.620Z,72.65
2019-02-23T12:55:18.534Z,69.73
2019-02-23T13:00:20.366Z,71.51
2019-02-23T13:05:21.904Z,75.18
2019-02-23T13:10:23.546Z,72.41
2019-02-23T13:15:36.590Z,76.65
2019-02-23T13:21:23.007Z,75.90
2019-02-23T13:26:55.771Z,72.82
2019-02-23T13:32:39.919Z,75.95
2019-02-23T13:38:10.276Z,76.81
2019-02-23T13:43:43.021Z,76.84
2019-02-23T13:49:17.726Z,72.92
2019-02-23T13:55:04.152Z,77.54
2019-02-23T14:00:53.547Z,75.59
2019-02-23T14:06:21.610Z,74.94
2019-02-23T14:11:52.671Z,76.45
2019-02-23T14:17:35.631Z,75.80
2019-02-23T14:23:30.961Z,76.35
2019-02-23T14:29:06.090Z,76.41
2019-02-23T14:35:03.128Z,77.44
2019-02-23T14:40:58.428Z,75.56
2019-02-23T14:46:37.543Z,76.52
2019-02-23T14:52:14.692Z,75.20
2019-02-23T14:57:39.548Z,77.00
2019-02-23T15:03:24.059Z,76.12
2019-02-23T15:09:00.696Z,76.63
2019-02-23T15:14:33.987Z,74.44
2019-02-23T15:20:07.071Z,76.47
2019-02-23T15:25:59.043Z,70.37
2019-02-23T15:31:29.144Z,73.80
2019-02-23T15:37:01.028Z,75.30
2019-02-23T15:42:44.596Z,75.83
2019-02-23T15:48:14.928Z,75.38
2019-02-23T15:53:17.383Z,75.46
2019-02-23T15:58:18.946Z,69.27
2019-02-23T16:03:20.521Z,73.71
2019-02-23T16:08:22.076Z,73.81
2019-02-23T16:13:23.657Z,73.51
2019-02-23T16:18:25.239Z,71.11
2019-02-23T16:23:36.750Z,70.36
2019-02-23T16:28:30.372Z,65.45
2019-02-23T16:33:32.139Z,65.94
2019-02-23T16:38:34.305Z,63.35
2019-02-23T16:43:35.892Z,62.58
2019-02-23T16:48:37.443Z,62.34
2019-02-23T16:53:39.067Z,63.29
2019-02-23T16:58:40.714Z,62.84
2019-02-23T17:03:42.577Z,64.96
2019-02-23T17:08:44.203Z,66.44
2019-02-23T17:13:46.126Z,71.89
2019-02-23T17:18:47.850Z,72.17
2019-02-23T17:23:49.509Z,72.51
2019-02-23T17:28:51.689Z,69.64
2019-02-23T17:33:53.423Z,73.12
2019-02-23T17:38:55.103Z,73.35
2019-02-23T17:43:57.666Z,71.28
2019-02-23T17:48:59.716Z,72.37
2019-02-23T17:54:01.674Z,72.69
2019-02-23T17:59:03.883Z,73.55
2019-02-23T18:04:05.657Z,73.33
2019-02-23T18:09:07.629Z,71.11
2019-02-23T18:14:09.287Z,72.44
2019-02-23T18:19:10.872Z,73.47
2019-02-23T18:24:14.446Z,73.38
2019-02-23T18:29:16.188Z,72.95
2019-02-23T18:34:17.886Z,72.57
2019-02-23T18:39:19.522Z,73.26
2019-02-23T18:44:21.167Z,73.20
2019-02-23T18:49:22.757Z,73.23
2019-02-23T18:54:24.445Z,73.53
2019-02-23T18:59:26.493Z,73.52
2019-02-23T19:04:28.729Z,73.80
2019-02-23T19:09:30.440Z,73.64
2019-02-23T19:14:32.357Z,73.61
2019-02-23T19:19:34.304Z,73.31
2019-02-23T19:24:36.253Z,73.50
2019-02-23T19:29:37.871Z,73.21
2019-02-23T19:34:41.560Z,72.19
2019-02-23T19:39:43.247Z,72.15
2019-02-23T19:44:45.152Z,71.44
2019-02-23T19:49:48.049Z,71.02
2019-02-23T19:54:49.935Z,70.44
2019-02-23T19:59:51.684Z,70.18
2019-02-23T20:04:53.388Z,69.52
2019-02-23T20:09:54.922Z,69.95
2019-02-23T20:14:56.582Z,69.49
2019-02-23T20:19:58.178Z,68.01
2019-02-23T20:24:59.844Z,68.99
2019-02-23T20:30:01.939Z,69.27
2019-02-23T20:35:03.751Z,69.91
2019-02-23T20:40:05.824Z,70.07
2019-02-23T20:45:07.436Z,72.16
2019-02-23T20:50:09.238Z,73.08
2019-02-23T20:55:10.952Z,73.50
2019-02-23T21:00:12.710Z,73.58
2019-02-23T21:05:14.795Z,73.91
2019-02-23T21:10:16.408Z,74.26
2019-02-23T21:15:18.582Z,74.21
2019-02-23T21:20:20.281Z,74.30
2019-02-23T21:25:21.880Z,74.36
2019-02-23T21:30:23.779Z,74.28
2019-02-23T21:35:25.315Z,74.35
2019-02-23T21:40:27.032Z,74.40
2019-02-23T21:45:28.607Z,74.48
2019-02-23T21:50:30.418Z,74.71
2019-02-23T21:55:32.130Z,74.75
2019-02-23T22:00:34.287Z,74.82
2019-02-23T22:05:36.051Z,74.68
2019-02-23T22:10:37.574Z,74.71
2019-02-23T22:15:39.660Z,74.93
2019-02-23T22:20:41.240Z,74.76
2019-02-23T22:25:42.919Z,74.83
2019-02-23T22:30:44.454Z,74.92
2019-02-23T22:35:46.288Z,75.00
2019-02-23T22:40:48.115Z,74.79
2019-02-23T22:45:49.691Z,75.01
2019-02-23T22:50:51.676Z,75.01
2019-02-23T22:55:53.365Z,74.98
2019-02-23T23:00:55.336Z,75.06
2019-02-23T23:05:57.064Z,75.00
2019-02-23T23:10:58.624Z,74.97
2019-02-23T23:16:00.222Z,74.80
2019-02-23T23:21:01.791Z,74.71
2019-02-23T23:26:03.473Z,74.81
2019-02-23T23:31:05.422Z,75.10
2019-02-23T23:36:07.420Z,75.24
2019-02-23T23:41:09.005Z,75.23
2019-02-23T23:46:10.727Z,74.74
2019-02-23T23:51:12.562Z,75.07
2019-02-23T23:56:14.115Z,75.15
